sensor_id;sensor_type;location;lat;lon;timestamp;P1;durP1;ratioP1;P2;durP2;ratioP2
55710;SDS011;41612;51.994;5.880;2022-09-09T00:02:20;4.60;;;2.70;;
55710;SDS011;41612;51.994;5.880;2022-09-09T00:05:14;5.65;;;3.53;;
55710;SDS011;41612;51.994;5.880;2022-09-09T00:07:47;2.85;;;1.88;;
55710;SDS011;41612;51.994;5.880;2022-09-09T00:10:39;4.45;;;2.83;;
55710;SDS011;41612;51.994;5.880;2022-09-09T00:21:13;6.68;;;2.80;;
55710;SDS011;41612;51.994;5.880;2022-09-09T00:23:47;3.45;;;1.90;;
55710;SDS011;41612;51.994;5.880;2022-09-09T00:26:38;4.25;;;2.70;;
55710;SDS011;41612;51.994;5.880;2022-09-09T00:31:37;4.40;;;2.42;;
55710;SDS011;41612;51.994;5.880;2022-09-09T00:34:14;4.60;;;3.42;;
55710;SDS011;41612;51.994;5.880;2022-09-09T00:36:51;4.32;;;2.42;;
55710;SDS011;41612;51.994;5.880;2022-09-09T00:39:25;5.70;;;2.42;;
55710;SDS011;41612;51.994;5.880;2022-09-09T00:48:12;3.38;;;1.95;;
55710;SDS011;41612;51.994;5.880;2022-09-09T00:50:57;3.88;;;2.72;;
55710;SDS011;41612;51.994;5.880;2022-09-09T00:56:27;5.45;;;2.70;;
55710;SDS011;41612;51.994;5.880;2022-09-09T00:59:08;3.40;;;2.20;;
55710;SDS011;41612;51.994;5.880;2022-09-09T01:01:44;6.03;;;3.25;;
55710;SDS011;41612;51.994;5.880;2022-09-09T01:04:13;4.13;;;2.70;;
55710;SDS011;41612;51.994;5.880;2022-09-09T01:06:46;3.05;;;2.17;;
55710;SDS011;41612;51.994;5.880;2022-09-09T01:12:41;4.38;;;2.33;;
55710;SDS011;41612;51.994;5.880;2022-09-09T01:15:12;4.82;;;2.20;;
55710;SDS011;41612;51.994;5.880;2022-09-09T01:18:00;3.85;;;2.17;;
55710;SDS011;41612;51.994;5.880;2022-09-09T01:20:37;3.28;;;1.80;;
55710;SDS011;41612;51.994;5.880;2022-09-09T01:26:52;3.15;;;1.35;;
55710;SDS011;41612;51.994;5.880;2022-09-09T01:29:25;4.18;;;1.85;;
55710;SDS011;41612;51.994;5.880;2022-09-09T01:31:59;3.75;;;2.10;;
55710;SDS011;41612;51.994;5.880;2022-09-09T01:39:39;2.75;;;1.40;;
55710;SDS011;41612;51.994;5.880;2022-09-09T01:42:11;2.70;;;1.80;;
55710;SDS011;41612;51.994;5.880;2022-09-09T01:44:44;2.92;;;1.05;;
55710;SDS011;41612;51.994;5.880;2022-09-09T01:47:14;4.40;;;1.23;;
55710;SDS011;41612;51.994;5.880;2022-09-09T01:49:58;3.50;;;1.42;;
55710;SDS011;41612;51.994;5.880;2022-09-09T01:52:27;5.00;;;2.05;;
55710;SDS011;41612;51.994;5.880;2022-09-09T01:54:54;5.43;;;2.20;;
55710;SDS011;41612;51.994;5.880;2022-09-09T01:57:27;3.03;;;1.50;;
55710;SDS011;41612;51.994;5.880;2022-09-09T02:00:06;3.00;;;1.83;;
55710;SDS011;41612;51.994;5.880;2022-09-09T02:11:32;2.55;;;1.40;;
55710;SDS011;41612;51.994;5.880;2022-09-09T02:14:06;1.30;;;0.88;;
55710;SDS011;41612;51.994;5.880;2022-09-09T02:16:42;3.22;;;2.10;;
55710;SDS011;41612;51.994;5.880;2022-09-09T02:19:23;2.80;;;1.58;;
55710;SDS011;41612;51.994;5.880;2022-09-09T02:22:05;3.20;;;1.73;;
55710;SDS011;41612;51.994;5.880;2022-09-09T02:24:32;3.88;;;1.60;;
55710;SDS011;41612;51.994;5.880;2022-09-09T02:27:19;3.17;;;1.60;;
55710;SDS011;41612;51.994;5.880;2022-09-09T02:29:47;3.45;;;1.67;;
55710;SDS011;41612;51.994;5.880;2022-09-09T02:32:22;3.47;;;1.52;;
55710;SDS011;41612;51.994;5.880;2022-09-09T02:37:55;2.97;;;1.70;;
55710;SDS011;41612;51.994;5.880;2022-09-09T02:40:24;3.25;;;1.70;;
55710;SDS011;41612;51.994;5.880;2022-09-09T02:42:57;2.75;;;1.48;;
55710;SDS011;41612;51.994;5.880;2022-09-09T02:45:26;2.97;;;1.65;;
55710;SDS011;41612;51.994;5.880;2022-09-09T02:50:52;1.77;;;1.20;;
55710;SDS011;41612;51.994;5.880;2022-09-09T02:56:11;2.03;;;1.08;;
55710;SDS011;41612;51.994;5.880;2022-09-09T02:58:44;2.97;;;1.50;;
55710;SDS011;41612;51.994;5.880;2022-09-09T03:01:14;1.80;;;1.00;;
55710;SDS011;41612;51.994;5.880;2022-09-09T03:03:40;2.10;;;1.10;;
55710;SDS011;41612;51.994;5.880;2022-09-09T03:06:11;3.28;;;2.03;;
55710;SDS011;41612;51.994;5.880;2022-09-09T03:08:38;3.63;;;1.30;;
55710;SDS011;41612;51.994;5.880;2022-09-09T03:11:04;3.47;;;2.03;;
55710;SDS011;41612;51.994;5.880;2022-09-09T03:13:35;3.55;;;1.83;;
55710;SDS011;41612;51.994;5.880;2022-09-09T03:16:00;1.80;;;1.20;;
55710;SDS011;41612;51.994;5.880;2022-09-09T03:18:32;2.60;;;1.00;;
55710;SDS011;41612;51.994;5.880;2022-09-09T03:21:02;2.58;;;1.30;;
55710;SDS011;41612;51.994;5.880;2022-09-09T03:23:28;1.88;;;1.02;;
55710;SDS011;41612;51.994;5.880;2022-09-09T03:25:56;3.75;;;1.92;;
55710;SDS011;41612;51.994;5.880;2022-09-09T03:28:30;3.03;;;1.65;;
55710;SDS011;41612;51.994;5.880;2022-09-09T03:31:04;2.40;;;1.63;;
55710;SDS011;41612;51.994;5.880;2022-09-09T03:33:38;4.88;;;2.30;;
55710;SDS011;41612;51.994;5.880;2022-09-09T03:36:06;3.53;;;2.20;;
55710;SDS011;41612;51.994;5.880;2022-09-09T03:38:36;3.72;;;1.65;;
55710;SDS011;41612;51.994;5.880;2022-09-09T03:41:08;1.88;;;0.93;;
55710;SDS011;41612;51.994;5.880;2022-09-09T03:43:34;4.40;;;1.30;;
55710;SDS011;41612;51.994;5.880;2022-09-09T03:46:01;6.95;;;3.20;;
55710;SDS011;41612;51.994;5.880;2022-09-09T03:48:28;3.85;;;2.00;;
55710;SDS011;41612;51.994;5.880;2022-09-09T03:50:54;4.43;;;1.80;;
55710;SDS011;41612;51.994;5.880;2022-09-09T03:53:26;3.10;;;2.30;;
55710;SDS011;41612;51.994;5.880;2022-09-09T03:55:54;2.10;;;1.10;;
55710;SDS011;41612;51.994;5.880;2022-09-09T03:58:23;2.58;;;1.13;;
55710;SDS011;41612;51.994;5.880;2022-09-09T04:00:57;3.38;;;2.10;;
55710;SDS011;41612;51.994;5.880;2022-09-09T04:03:31;2.65;;;1.50;;
55710;SDS011;41612;51.994;5.880;2022-09-09T04:05:58;2.83;;;1.70;;
55710;SDS011;41612;51.994;5.880;2022-09-09T04:08:29;3.38;;;1.70;;
55710;SDS011;41612;51.994;5.880;2022-09-09T04:10:59;3.20;;;2.30;;
55710;SDS011;41612;51.994;5.880;2022-09-09T04:13:27;5.38;;;2.58;;
55710;SDS011;41612;51.994;5.880;2022-09-09T04:15:56;3.38;;;2.10;;
55710;SDS011;41612;51.994;5.880;2022-09-09T04:18:24;3.50;;;1.65;;
55710;SDS011;41612;51.994;5.880;2022-09-09T04:20:51;2.28;;;1.50;;
55710;SDS011;41612;51.994;5.880;2022-09-09T04:23:21;3.38;;;1.60;;
55710;SDS011;41612;51.994;5.880;2022-09-09T04:25:47;3.38;;;1.70;;
55710;SDS011;41612;51.994;5.880;2022-09-09T04:28:15;7.53;;;1.90;;
55710;SDS011;41612;51.994;5.880;2022-09-09T04:30:42;4.97;;;2.22;;
55710;SDS011;41612;51.994;5.880;2022-09-09T04:33:09;4.53;;;2.00;;
55710;SDS011;41612;51.994;5.880;2022-09-09T04:35:36;3.58;;;1.92;;
55710;SDS011;41612;51.994;5.880;2022-09-09T04:38:03;4.40;;;1.85;;
55710;SDS011;41612;51.994;5.880;2022-09-09T04:43:24;3.65;;;2.35;;
55710;SDS011;41612;51.994;5.880;2022-09-09T04:45:52;5.30;;;2.40;;
55710;SDS011;41612;51.994;5.880;2022-09-09T04:48:21;7.03;;;2.78;;
55710;SDS011;41612;51.994;5.880;2022-09-09T04:51:00;5.93;;;2.72;;
55710;SDS011;41612;51.994;5.880;2022-09-09T04:53:32;8.98;;;3.03;;
55710;SDS011;41612;51.994;5.880;2022-09-09T04:56:04;4.22;;;1.42;;
55710;SDS011;41612;51.994;5.880;2022-09-09T04:58:40;4.07;;;1.85;;
55710;SDS011;41612;51.994;5.880;2022-09-09T05:01:50;4.22;;;1.60;;
55710;SDS011;41612;51.994;5.880;2022-09-09T05:04:42;5.53;;;1.50;;
55710;SDS011;41612;51.994;5.880;2022-09-09T05:14:41;2.75;;;1.30;;
55710;SDS011;41612;51.994;5.880;2022-09-09T05:17:10;2.40;;;1.20;;
55710;SDS011;41612;51.994;5.880;2022-09-09T05:19:40;5.60;;;2.58;;
55710;SDS011;41612;51.994;5.880;2022-09-09T05:54:59;3.10;;;1.60;;
55710;SDS011;41612;51.994;5.880;2022-09-09T05:57:37;19.52;;;3.17;;
55710;SDS011;41612;51.994;5.880;2022-09-09T06:00:04;12.80;;;2.60;;
55710;SDS011;41612;51.994;5.880;2022-09-09T06:02:39;9.57;;;3.28;;
55710;SDS011;41612;51.994;5.880;2022-09-09T06:09:04;6.20;;;3.00;;
55710;SDS011;41612;51.994;5.880;2022-09-09T06:14:37;8.85;;;2.83;;
55710;SDS011;41612;51.994;5.880;2022-09-09T06:17:03;5.95;;;2.80;;
55710;SDS011;41612;51.994;5.880;2022-09-09T06:19:33;5.05;;;2.80;;
55710;SDS011;41612;51.994;5.880;2022-09-09T06:22:15;10.00;;;3.13;;
55710;SDS011;41612;51.994;5.880;2022-09-09T06:24:42;8.68;;;3.65;;
55710;SDS011;41612;51.994;5.880;2022-09-09T06:27:10;8.15;;;3.08;;
55710;SDS011;41612;51.994;5.880;2022-09-09T06:29:36;8.60;;;3.10;;
55710;SDS011;41612;51.994;5.880;2022-09-09T06:32:02;12.65;;;4.00;;
55710;SDS011;41612;51.994;5.880;2022-09-09T06:34:28;8.93;;;4.28;;
55710;SDS011;41612;51.994;5.880;2022-09-09T06:36:56;8.85;;;3.28;;
55710;SDS011;41612;51.994;5.880;2022-09-09T06:39:23;8.98;;;2.75;;
55710;SDS011;41612;51.994;5.880;2022-09-09T06:45:28;10.15;;;3.22;;
55710;SDS011;41612;51.994;5.880;2022-09-09T06:47:58;8.60;;;2.92;;
55710;SDS011;41612;51.994;5.880;2022-09-09T06:50:26;9.27;;;2.65;;
55710;SDS011;41612;51.994;5.880;2022-09-09T06:52:57;16.70;;;4.15;;
55710;SDS011;41612;51.994;5.880;2022-09-09T06:55:24;11.02;;;2.13;;
55710;SDS011;41612;51.994;5.880;2022-09-09T06:57:50;8.40;;;2.63;;
55710;SDS011;41612;51.994;5.880;2022-09-09T07:00:21;11.38;;;3.10;;
55710;SDS011;41612;51.994;5.880;2022-09-09T07:02:50;8.23;;;2.28;;
55710;SDS011;41612;51.994;5.880;2022-09-09T07:05:16;12.43;;;4.88;;
55710;SDS011;41612;51.994;5.880;2022-09-09T07:07:44;9.32;;;2.80;;
55710;SDS011;41612;51.994;5.880;2022-09-09T07:10:11;11.85;;;4.05;;
55710;SDS011;41612;51.994;5.880;2022-09-09T07:12:37;14.18;;;3.63;;
55710;SDS011;41612;51.994;5.880;2022-09-09T07:15:03;10.48;;;3.88;;
55710;SDS011;41612;51.994;5.880;2022-09-09T07:17:30;14.20;;;3.83;;
55710;SDS011;41612;51.994;5.880;2022-09-09T07:19:58;11.32;;;3.00;;
55710;SDS011;41612;51.994;5.880;2022-09-09T07:22:27;5.28;;;2.55;;
55710;SDS011;41612;51.994;5.880;2022-09-09T07:24:54;7.50;;;2.50;;
55710;SDS011;41612;51.994;5.880;2022-09-09T07:27:20;7.47;;;2.53;;
55710;SDS011;41612;51.994;5.880;2022-09-09T07:29:47;10.30;;;3.05;;
55710;SDS011;41612;51.994;5.880;2022-09-09T07:32:20;7.10;;;2.42;;
55710;SDS011;41612;51.994;5.880;2022-09-09T07:34:46;11.05;;;3.47;;
55710;SDS011;41612;51.994;5.880;2022-09-09T07:37:12;12.95;;;2.90;;
55710;SDS011;41612;51.994;5.880;2022-09-09T07:39:41;12.70;;;3.00;;
55710;SDS011;41612;51.994;5.880;2022-09-09T07:42:07;6.70;;;2.90;;
55710;SDS011;41612;51.994;5.880;2022-09-09T07:44:36;5.93;;;2.63;;
55710;SDS011;41612;51.994;5.880;2022-09-09T07:47:11;8.23;;;2.60;;
55710;SDS011;41612;51.994;5.880;2022-09-09T07:49:43;7.82;;;2.63;;
55710;SDS011;41612;51.994;5.880;2022-09-09T07:52:13;8.15;;;3.05;;
55710;SDS011;41612;51.994;5.880;2022-09-09T07:54:42;6.10;;;2.63;;
55710;SDS011;41612;51.994;5.880;2022-09-09T07:57:09;8.88;;;3.65;;
55710;SDS011;41612;51.994;5.880;2022-09-09T07:59:36;9.95;;;3.35;;
55710;SDS011;41612;51.994;5.880;2022-09-09T08:02:03;11.05;;;2.65;;
55710;SDS011;41612;51.994;5.880;2022-09-09T08:04:31;7.30;;;2.15;;
55710;SDS011;41612;51.994;5.880;2022-09-09T08:06:59;9.27;;;2.53;;
55710;SDS011;41612;51.994;5.880;2022-09-09T08:09:27;8.48;;;2.45;;
55710;SDS011;41612;51.994;5.880;2022-09-09T08:11:59;7.65;;;2.47;;
55710;SDS011;41612;51.994;5.880;2022-09-09T08:14:28;8.55;;;2.42;;
55710;SDS011;41612;51.994;5.880;2022-09-09T08:16:55;11.10;;;2.63;;
55710;SDS011;41612;51.994;5.880;2022-09-09T08:19:24;8.02;;;2.55;;
55710;SDS011;41612;51.994;5.880;2022-09-09T08:21:51;9.65;;;2.20;;
55710;SDS011;41612;51.994;5.880;2022-09-09T08:24:17;9.60;;;2.85;;
55710;SDS011;41612;51.994;5.880;2022-09-09T08:26:47;14.40;;;2.97;;
55710;SDS011;41612;51.994;5.880;2022-09-09T08:29:16;11.50;;;3.63;;
55710;SDS011;41612;51.994;5.880;2022-09-09T08:34:15;8.18;;;2.22;;
55710;SDS011;41612;51.994;5.880;2022-09-09T08:36:43;7.72;;;3.63;;
55710;SDS011;41612;51.994;5.880;2022-09-09T08:39:16;9.10;;;2.28;;
55710;SDS011;41612;51.994;5.880;2022-09-09T08:42:09;12.27;;;3.10;;
55710;SDS011;41612;51.994;5.880;2022-09-09T08:44:58;12.70;;;3.05;;
55710;SDS011;41612;51.994;5.880;2022-09-09T08:50:29;7.90;;;2.30;;
55710;SDS011;41612;51.994;5.880;2022-09-09T08:56:22;6.25;;;1.90;;
55710;SDS011;41612;51.994;5.880;2022-09-09T08:58:58;12.70;;;2.40;;
55710;SDS011;41612;51.994;5.880;2022-09-09T09:04:37;9.57;;;2.13;;
55710;SDS011;41612;51.994;5.880;2022-09-09T09:10:02;10.80;;;2.13;;
55710;SDS011;41612;51.994;5.880;2022-09-09T09:13:08;5.88;;;1.77;;
55710;SDS011;41612;51.994;5.880;2022-09-09T09:16:02;5.55;;;1.35;;
55710;SDS011;41612;51.994;5.880;2022-09-09T09:18:39;8.40;;;2.08;;
55710;SDS011;41612;51.994;5.880;2022-09-09T09:21:12;7.47;;;1.98;;
55710;SDS011;41612;51.994;5.880;2022-09-09T09:24:13;8.52;;;2.22;;
55710;SDS011;41612;51.994;5.880;2022-09-09T09:26:49;11.70;;;2.00;;
55710;SDS011;41612;51.994;5.880;2022-09-09T09:29:18;8.90;;;3.00;;
55710;SDS011;41612;51.994;5.880;2022-09-09T09:31:45;5.60;;;1.88;;
55710;SDS011;41612;51.994;5.880;2022-09-09T09:34:25;6.95;;;2.25;;
55710;SDS011;41612;51.994;5.880;2022-09-09T09:36:53;7.32;;;2.25;;
55710;SDS011;41612;51.994;5.880;2022-09-09T09:39:27;7.85;;;1.73;;
55710;SDS011;41612;51.994;5.880;2022-09-09T09:42:54;8.80;;;1.95;;
55710;SDS011;41612;51.994;5.880;2022-09-09T09:45:49;5.38;;;1.50;;
55710;SDS011;41612;51.994;5.880;2022-09-09T09:48:16;4.75;;;1.75;;
55710;SDS011;41612;51.994;5.880;2022-09-09T09:50:48;5.22;;;1.60;;
55710;SDS011;41612;51.994;5.880;2022-09-09T09:53:37;6.78;;;1.90;;
55710;SDS011;41612;51.994;5.880;2022-09-09T10:02:24;7.40;;;1.92;;
55710;SDS011;41612;51.994;5.880;2022-09-09T10:19:41;5.80;;;1.52;;
55710;SDS011;41612;51.994;5.880;2022-09-09T10:22:31;8.82;;;2.22;;
55710;SDS011;41612;51.994;5.880;2022-09-09T10:30:24;10.02;;;1.90;;
55710;SDS011;41612;51.994;5.880;2022-09-09T10:33:10;7.43;;;1.90;;
55710;SDS011;41612;51.994;5.880;2022-09-09T10:35:51;10.18;;;2.60;;
55710;SDS011;41612;51.994;5.880;2022-09-09T10:55:41;6.55;;;2.15;;
55710;SDS011;41612;51.994;5.880;2022-09-09T10:58:11;5.78;;;2.40;;
55710;SDS011;41612;51.994;5.880;2022-09-09T11:00:45;5.15;;;1.58;;
55710;SDS011;41612;51.994;5.880;2022-09-09T11:03:17;12.07;;;2.50;;
55710;SDS011;41612;51.994;5.880;2022-09-09T11:05:55;8.38;;;2.05;;
55710;SDS011;41612;51.994;5.880;2022-09-09T11:08:29;9.52;;;2.05;;
55710;SDS011;41612;51.994;5.880;2022-09-09T11:13:49;7.75;;;1.73;;
55710;SDS011;41612;51.994;5.880;2022-09-09T11:16:42;9.40;;;2.00;;
55710;SDS011;41612;51.994;5.880;2022-09-09T11:19:30;6.90;;;1.88;;
55710;SDS011;41612;51.994;5.880;2022-09-09T11:25:15;9.73;;;2.10;;
55710;SDS011;41612;51.994;5.880;2022-09-09T11:39:16;7.93;;;2.42;;
55710;SDS011;41612;51.994;5.880;2022-09-09T11:42:07;13.13;;;2.97;;
55710;SDS011;41612;51.994;5.880;2022-09-09T11:44:51;5.60;;;1.60;;
55710;SDS011;41612;51.994;5.880;2022-09-09T11:47:24;6.10;;;2.47;;
55710;SDS011;41612;51.994;5.880;2022-09-09T11:49:54;7.70;;;2.90;;
55710;SDS011;41612;51.994;5.880;2022-09-09T11:52:37;5.22;;;1.90;;
55710;SDS011;41612;51.994;5.880;2022-09-09T12:00:32;8.23;;;2.10;;
55710;SDS011;41612;51.994;5.880;2022-09-09T12:06:16;7.95;;;2.15;;
55710;SDS011;41612;51.994;5.880;2022-09-09T12:09:07;6.50;;;1.63;;
55710;SDS011;41612;51.994;5.880;2022-09-09T12:11:41;3.58;;;1.52;;
55710;SDS011;41612;51.994;5.880;2022-09-09T12:14:20;5.97;;;1.85;;
55710;SDS011;41612;51.994;5.880;2022-09-09T12:16:46;6.75;;;2.13;;
55710;SDS011;41612;51.994;5.880;2022-09-09T12:19:19;8.60;;;1.85;;
55710;SDS011;41612;51.994;5.880;2022-09-09T12:27:36;3.72;;;1.60;;
55710;SDS011;41612;51.994;5.880;2022-09-09T12:30:11;6.55;;;1.92;;
55710;SDS011;41612;51.994;5.880;2022-09-09T12:32:40;6.40;;;1.95;;
55710;SDS011;41612;51.994;5.880;2022-09-09T12:35:10;5.72;;;1.92;;
55710;SDS011;41612;51.994;5.880;2022-09-09T12:37:49;3.85;;;1.42;;
55710;SDS011;41612;51.994;5.880;2022-09-09T12:40:19;5.68;;;1.73;;
55710;SDS011;41612;51.994;5.880;2022-09-09T12:42:55;6.45;;;1.83;;
55710;SDS011;41612;51.994;5.880;2022-09-09T12:45:26;6.25;;;1.90;;
55710;SDS011;41612;51.994;5.880;2022-09-09T12:48:03;6.95;;;2.83;;
55710;SDS011;41612;51.994;5.880;2022-09-09T12:50:36;3.83;;;1.55;;
55710;SDS011;41612;51.994;5.880;2022-09-09T12:53:12;6.18;;;2.15;;
55710;SDS011;41612;51.994;5.880;2022-09-09T12:55:51;5.45;;;1.70;;
55710;SDS011;41612;51.994;5.880;2022-09-09T12:58:32;5.00;;;1.77;;
55710;SDS011;41612;51.994;5.880;2022-09-09T13:01:00;3.78;;;1.73;;
55710;SDS011;41612;51.994;5.880;2022-09-09T13:03:29;4.50;;;1.70;;
55710;SDS011;41612;51.994;5.880;2022-09-09T13:06:09;6.20;;;2.22;;
55710;SDS011;41612;51.994;5.880;2022-09-09T13:08:37;4.28;;;1.40;;
55710;SDS011;41612;51.994;5.880;2022-09-09T13:11:03;6.82;;;2.45;;
55710;SDS011;41612;51.994;5.880;2022-09-09T13:13:35;7.53;;;1.58;;
55710;SDS011;41612;51.994;5.880;2022-09-09T13:16:04;2.63;;;1.30;;
55710;SDS011;41612;51.994;5.880;2022-09-09T13:18:34;3.35;;;1.42;;
55710;SDS011;41612;51.994;5.880;2022-09-09T13:21:03;6.43;;;1.60;;
55710;SDS011;41612;51.994;5.880;2022-09-09T13:23:30;5.35;;;1.90;;
55710;SDS011;41612;51.994;5.880;2022-09-09T13:25:59;8.57;;;1.85;;
55710;SDS011;41612;51.994;5.880;2022-09-09T13:28:27;6.75;;;1.50;;
55710;SDS011;41612;51.994;5.880;2022-09-09T13:31:04;5.80;;;1.90;;
55710;SDS011;41612;51.994;5.880;2022-09-09T13:33:51;4.28;;;1.85;;
55710;SDS011;41612;51.994;5.880;2022-09-09T13:36:26;5.03;;;1.55;;
55710;SDS011;41612;51.994;5.880;2022-09-09T13:38:57;4.40;;;1.92;;
55710;SDS011;41612;51.994;5.880;2022-09-09T13:41:35;7.93;;;2.05;;
55710;SDS011;41612;51.994;5.880;2022-09-09T13:44:14;6.07;;;2.10;;
55710;SDS011;41612;51.994;5.880;2022-09-09T13:46:48;6.30;;;2.13;;
55710;SDS011;41612;51.994;5.880;2022-09-09T13:49:26;4.85;;;2.10;;
55710;SDS011;41612;51.994;5.880;2022-09-09T13:52:05;6.20;;;1.98;;
55710;SDS011;41612;51.994;5.880;2022-09-09T13:54:36;8.63;;;2.08;;
55710;SDS011;41612;51.994;5.880;2022-09-09T13:57:02;6.07;;;1.50;;
55710;SDS011;41612;51.994;5.880;2022-09-09T13:59:29;5.85;;;1.65;;
55710;SDS011;41612;51.994;5.880;2022-09-09T14:01:56;3.75;;;2.15;;
55710;SDS011;41612;51.994;5.880;2022-09-09T14:04:23;5.25;;;2.00;;
55710;SDS011;41612;51.994;5.880;2022-09-09T14:06:49;7.95;;;1.92;;
55710;SDS011;41612;51.994;5.880;2022-09-09T14:09:15;6.53;;;2.10;;
55710;SDS011;41612;51.994;5.880;2022-09-09T14:11:43;4.03;;;1.52;;
55710;SDS011;41612;51.994;5.880;2022-09-09T14:14:10;2.75;;;1.38;;
55710;SDS011;41612;51.994;5.880;2022-09-09T14:16:36;6.20;;;1.88;;
55710;SDS011;41612;51.994;5.880;2022-09-09T14:19:03;3.85;;;1.20;;
55710;SDS011;41612;51.994;5.880;2022-09-09T14:21:29;5.25;;;1.33;;
55710;SDS011;41612;51.994;5.880;2022-09-09T14:23:54;3.33;;;1.30;;
55710;SDS011;41612;51.994;5.880;2022-09-09T14:26:23;2.90;;;1.10;;
55710;SDS011;41612;51.994;5.880;2022-09-09T14:28:50;6.35;;;1.40;;
55710;SDS011;41612;51.994;5.880;2022-09-09T14:31:16;1.65;;;0.82;;
55710;SDS011;41612;51.994;5.880;2022-09-09T14:33:43;3.50;;;1.55;;
55710;SDS011;41612;51.994;5.880;2022-09-09T14:36:09;3.35;;;1.23;;
55710;SDS011;41612;51.994;5.880;2022-09-09T14:38:37;7.15;;;1.40;;
55710;SDS011;41612;51.994;5.880;2022-09-09T14:41:07;4.03;;;1.48;;
55710;SDS011;41612;51.994;5.880;2022-09-09T14:43:39;10.48;;;2.72;;
55710;SDS011;41612;51.994;5.880;2022-09-09T14:46:05;5.97;;;2.15;;
55710;SDS011;41612;51.994;5.880;2022-09-09T14:48:32;3.25;;;1.25;;
55710;SDS011;41612;51.994;5.880;2022-09-09T14:51:08;6.65;;;1.77;;
55710;SDS011;41612;51.994;5.880;2022-09-09T14:53:38;4.25;;;1.50;;
55710;SDS011;41612;51.994;5.880;2022-09-09T14:56:08;5.03;;;1.58;;
55710;SDS011;41612;51.994;5.880;2022-09-09T14:58:38;3.65;;;1.20;;
55710;SDS011;41612;51.994;5.880;2022-09-09T15:01:13;3.28;;;1.13;;
55710;SDS011;41612;51.994;5.880;2022-09-09T15:03:50;3.92;;;1.60;;
55710;SDS011;41612;51.994;5.880;2022-09-09T15:06:17;6.78;;;1.80;;
55710;SDS011;41612;51.994;5.880;2022-09-09T15:08:43;3.65;;;1.75;;
55710;SDS011;41612;51.994;5.880;2022-09-09T15:11:10;4.63;;;1.27;;
55710;SDS011;41612;51.994;5.880;2022-09-09T15:13:38;3.95;;;1.40;;
55710;SDS011;41612;51.994;5.880;2022-09-09T15:16:05;5.90;;;1.75;;
55710;SDS011;41612;51.994;5.880;2022-09-09T15:18:31;4.50;;;1.75;;
55710;SDS011;41612;51.994;5.880;2022-09-09T15:20:58;3.50;;;1.25;;
55710;SDS011;41612;51.994;5.880;2022-09-09T15:23:26;6.20;;;1.80;;
55710;SDS011;41612;51.994;5.880;2022-09-09T15:25:53;4.72;;;2.80;;
55710;SDS011;41612;51.994;5.880;2022-09-09T15:28:20;6.43;;;2.35;;
55710;SDS011;41612;51.994;5.880;2022-09-09T15:30:51;6.45;;;1.80;;
55710;SDS011;41612;51.994;5.880;2022-09-09T15:33:20;6.22;;;2.30;;
55710;SDS011;41612;51.994;5.880;2022-09-09T15:35:47;6.88;;;1.50;;
55710;SDS011;41612;51.994;5.880;2022-09-09T15:38:17;3.15;;;1.20;;
55710;SDS011;41612;51.994;5.880;2022-09-09T15:40:52;2.83;;;1.20;;
55710;SDS011;41612;51.994;5.880;2022-09-09T15:43:49;3.45;;;1.20;;
55710;SDS011;41612;51.994;5.880;2022-09-09T15:48:44;3.17;;;1.38;;
55710;SDS011;41612;51.994;5.880;2022-09-09T15:51:10;2.58;;;1.02;;
55710;SDS011;41612;51.994;5.880;2022-09-09T15:53:36;2.95;;;1.13;;
55710;SDS011;41612;51.994;5.880;2022-09-09T15:56:04;2.17;;;1.00;;
55710;SDS011;41612;51.994;5.880;2022-09-09T15:58:32;3.50;;;1.23;;
55710;SDS011;41612;51.994;5.880;2022-09-09T16:01:05;3.92;;;1.38;;
55710;SDS011;41612;51.994;5.880;2022-09-09T16:03:36;6.95;;;2.65;;
55710;SDS011;41612;51.994;5.880;2022-09-09T16:06:02;8.50;;;2.60;;
55710;SDS011;41612;51.994;5.880;2022-09-09T16:08:33;2.92;;;1.20;;
55710;SDS011;41612;51.994;5.880;2022-09-09T16:11:04;3.85;;;1.55;;
55710;SDS011;41612;51.994;5.880;2022-09-09T16:13:41;7.55;;;1.90;;
55710;SDS011;41612;51.994;5.880;2022-09-09T16:16:09;3.72;;;1.15;;
55710;SDS011;41612;51.994;5.880;2022-09-09T16:18:37;4.28;;;1.70;;
55710;SDS011;41612;51.994;5.880;2022-09-09T16:21:08;3.95;;;1.38;;
55710;SDS011;41612;51.994;5.880;2022-09-09T16:23:43;5.00;;;1.60;;
55710;SDS011;41612;51.994;5.880;2022-09-09T16:26:12;3.33;;;1.45;;
55710;SDS011;41612;51.994;5.880;2022-09-09T16:28:40;4.60;;;1.67;;
55710;SDS011;41612;51.994;5.880;2022-09-09T16:31:06;3.83;;;1.27;;
55710;SDS011;41612;51.994;5.880;2022-09-09T16:33:35;3.35;;;1.33;;
55710;SDS011;41612;51.994;5.880;2022-09-09T16:36:05;3.92;;;1.63;;
55710;SDS011;41612;51.994;5.880;2022-09-09T16:38:35;4.38;;;1.60;;
55710;SDS011;41612;51.994;5.880;2022-09-09T16:41:09;3.58;;;1.50;;
55710;SDS011;41612;51.994;5.880;2022-09-09T17:49:38;4.35;;;2.00;;
55710;SDS011;41612;51.994;5.880;2022-09-09T19:40:20;4.68;;;2.17;;
55710;SDS011;41612;51.994;5.880;2022-09-09T19:42:53;3.35;;;2.78;;
55710;SDS011;41612;51.994;5.880;2022-09-09T19:45:25;3.45;;;2.13;;
55710;SDS011;41612;51.994;5.880;2022-09-09T19:47:56;3.65;;;2.47;;
55710;SDS011;41612;51.994;5.880;2022-09-09T19:50:34;3.38;;;2.13;;
55710;SDS011;41612;51.994;5.880;2022-09-09T19:53:01;3.70;;;2.88;;
55710;SDS011;41612;51.994;5.880;2022-09-09T19:55:28;2.92;;;2.00;;
55710;SDS011;41612;51.994;5.880;2022-09-09T19:58:19;3.15;;;1.98;;
55710;SDS011;41612;51.994;5.880;2022-09-09T20:00:48;5.93;;;2.53;;
55710;SDS011;41612;51.994;5.880;2022-09-09T20:03:21;4.30;;;2.00;;
55710;SDS011;41612;51.994;5.880;2022-09-09T20:05:52;4.63;;;2.25;;
55710;SDS011;41612;51.994;5.880;2022-09-09T20:08:21;6.35;;;2.00;;
55710;SDS011;41612;51.994;5.880;2022-09-09T20:10:53;3.17;;;1.42;;
55710;SDS011;41612;51.994;5.880;2022-09-09T20:13:22;5.38;;;2.50;;
55710;SDS011;41612;51.994;5.880;2022-09-09T20:15:55;3.33;;;2.63;;
55710;SDS011;41612;51.994;5.880;2022-09-09T20:18:30;4.63;;;3.83;;
55710;SDS011;41612;51.994;5.880;2022-09-09T20:20:57;4.65;;;3.25;;
55710;SDS011;41612;51.994;5.880;2022-09-09T20:23:28;3.17;;;2.30;;
55710;SDS011;41612;51.994;5.880;2022-09-09T20:25:54;5.43;;;2.70;;
55710;SDS011;41612;51.994;5.880;2022-09-09T20:28:20;5.20;;;2.33;;
55710;SDS011;41612;51.994;5.880;2022-09-09T20:30:51;7.68;;;2.35;;
55710;SDS011;41612;51.994;5.880;2022-09-09T20:33:18;8.85;;;3.90;;
55710;SDS011;41612;51.994;5.880;2022-09-09T20:35:44;5.97;;;3.35;;
55710;SDS011;41612;51.994;5.880;2022-09-09T20:38:10;8.93;;;4.50;;
55710;SDS011;41612;51.994;5.880;2022-09-09T20:40:37;7.43;;;4.15;;
55710;SDS011;41612;51.994;5.880;2022-09-09T20:43:03;6.55;;;3.60;;
55710;SDS011;41612;51.994;5.880;2022-09-09T20:45:30;7.15;;;4.03;;
55710;SDS011;41612;51.994;5.880;2022-09-09T20:47:59;4.25;;;3.00;;
55710;SDS011;41612;51.994;5.880;2022-09-09T20:50:33;4.22;;;1.75;;
55710;SDS011;41612;51.994;5.880;2022-09-09T20:53:01;3.03;;;1.50;;
55710;SDS011;41612;51.994;5.880;2022-09-09T20:55:29;6.80;;;3.63;;
55710;SDS011;41612;51.994;5.880;2022-09-09T20:57:58;4.53;;;2.40;;
55710;SDS011;41612;51.994;5.880;2022-09-09T21:00:25;3.67;;;2.60;;
55710;SDS011;41612;51.994;5.880;2022-09-09T21:02:51;5.53;;;2.90;;
55710;SDS011;41612;51.994;5.880;2022-09-09T21:05:17;3.55;;;2.03;;
55710;SDS011;41612;51.994;5.880;2022-09-09T21:07:43;8.25;;;3.90;;
55710;SDS011;41612;51.994;5.880;2022-09-09T21:10:10;6.43;;;3.20;;
55710;SDS011;41612;51.994;5.880;2022-09-09T21:12:36;5.50;;;3.22;;
55710;SDS011;41612;51.994;5.880;2022-09-09T21:15:02;9.15;;;5.35;;
55710;SDS011;41612;51.994;5.880;2022-09-09T21:17:28;5.65;;;3.15;;
55710;SDS011;41612;51.994;5.880;2022-09-09T21:19:54;4.45;;;3.65;;
55710;SDS011;41612;51.994;5.880;2022-09-09T21:22:20;6.03;;;3.40;;
55710;SDS011;41612;51.994;5.880;2022-09-09T21:24:45;2.72;;;1.90;;